Time;durP1;ratioP1;P1;durP2;ratioP2;P2;SDS_P1;SDS_P2;PMS_P1;PMS_P2;Temp;Humidity;BMP_temperature;BMP_pressure;BME280_temperature;BME280_humidity;BME280_pressure;Samples;Min_cycle;Max_cycle;Signal;HPM_P1;HPM_P2
2023/08/08 00:00:20;;;;;;;4.60;1.92;;;;;;;-146.25;100.00;52295.19;2063162;28;33125;-72
2023/08/08 00:01:24;;;;;;;2.72;1.90;;;;;;;-146.25;100.00;52230.31;2055051;28;33718;-73
2023/08/08 00:02:27;;;;;;;4.35;1.60;;;;;;;-146.25;100.00;52289.13;2063238;28;35965;-72
2023/08/08 00:03:29;;;;;;;5.65;1.80;;;;;;;-146.25;100.00;52301.28;2070588;28;30003;-72
2023/08/08 00:04:30;;;;;;;4.20;1.98;;;;;;;-146.25;100.00;52258.72;2064152;28;32812;-74
2023/08/08 00:05:32;;;;;;;7.63;2.15;;;;;;;-146.25;100.00;52285.06;2063324;28;37890;-78
2023/08/08 00:06:34;;;;;;;6.00;1.60;;;;;;;-146.25;100.00;52291.16;2062441;28;34817;-77
2023/08/08 00:07:36;;;;;;;8.85;2.13;;;;;;;-146.25;100.00;52281.00;2055658;28;20046;-76
2023/08/08 00:08:39;;;;;;;6.00;1.73;;;;;;;-146.25;100.00;52262.75;2055076;28;36259;-74
2023/08/08 00:09:40;;;;;;;6.38;1.70;;;;;;;-146.25;100.00;52289.13;2055512;28;33766;-74
2023/08/08 00:10:42;;;;;;;6.10;1.83;;;;;;;-146.25;100.00;52262.75;2070748;28;37128;-74
2023/08/08 00:11:44;;;;;;;8.32;2.10;;;;;;;-146.25;100.00;52250.59;2078874;28;35623;-74
2023/08/08 00:12:50;;;;;;;4.85;1.85;;;;;;;-146.25;100.00;52327.66;2070519;28;35212;-73
2023/08/08 00:13:51;;;;;;;5.35;2.00;;;;;;;-146.25;100.00;52266.81;2071683;28;35901;-74
2023/08/08 00:14:56;;;;;;;6.57;2.20;;;;;;;-146.25;100.00;52278.97;2079045;28;34892;-74
2023/08/08 00:16:00;;;;;;;5.95;1.80;;;;;;;-146.25;100.00;52289.13;2070610;28;34610;-76
2023/08/08 00:17:04;;;;;;;7.40;2.30;;;;;;;-146.25;100.00;52281.00;2070636;28;34259;-76
2023/08/08 00:18:06;;;;;;;4.35;1.63;;;;;;;-146.25;100.00;52262.75;2070842;28;30986;-75
2023/08/08 00:19:08;;;;;;;3.72;1.58;;;;;;;-146.25;100.00;52291.16;2071064;28;35348;-71
2023/08/08 00:20:10;;;;;;;4.47;1.83;;;;;;;-146.25;100.00;52226.25;2074813;28;36233;-71
2023/08/08 00:21:12;;;;;;;4.68;1.80;;;;;;;-146.25;100.00;52283.03;2070858;28;35265;-70
2023/08/08 00:22:16;;;;;;;3.25;1.85;;;;;;;-146.25;100.00;52240.47;2062714;28;36546;-70
2023/08/08 00:23:18;;;;;;;7.97;2.17;;;;;;;-146.25;100.00;52283.03;2070716;28;37597;-71
2023/08/08 00:24:20;;;;;;;5.80;1.83;;;;;;;-146.25;100.00;52220.19;2071313;28;37319;-70
2023/08/08 00:25:22;;;;;;;6.13;2.30;;;;;;;-146.25;100.00;52230.31;2071437;28;34719;-70
2023/08/08 00:26:25;;;;;;;5.40;2.13;;;;;;;-146.25;100.00;52270.88;2070855;28;37128;-71
2023/08/08 00:27:27;;;;;;;6.50;2.17;;;;;;;-146.25;100.00;52246.53;2071569;28;28113;-70
2023/08/08 00:28:29;;;;;;;5.85;2.03;;;;;;;-146.25;100.00;52301.28;2071241;28;34123;-71
2023/08/08 00:29:33;;;;;;;5.82;1.95;;;;;;;-146.25;100.00;52274.94;2071416;28;32068;-70
2023/08/08 00:30:37;;;;;;;4.47;2.08;;;;;;;-146.25;100.00;52254.66;2071342;28;28096;-71
2023/08/08 00:31:38;;;;;;;3.63;2.05;;;;;;;-146.25;100.00;52262.75;2078761;28;32736;-70
2023/08/08 00:32:41;;;;;;;4.10;1.85;;;;;;;-146.25;100.00;52274.94;2078838;28;37351;-71
2023/08/08 00:33:42;;;;;;;8.05;2.50;;;;;;;-146.25;100.00;52238.44;2071042;28;31445;-71
2023/08/08 00:34:44;;;;;;;4.07;2.50;;;;;;;-146.25;100.00;52262.75;2063091;28;20257;-70
2023/08/08 00:35:49;;;;;;;4.65;2.47;;;;;;;-146.25;100.00;52254.66;2063765;28;20082;-71
2023/08/08 00:36:51;;;;;;;5.72;2.33;;;;;;;-146.25;100.00;52254.66;2071417;28;27418;-70
2023/08/08 00:37:53;;;;;;;7.35;2.30;;;;;;;-146.25;100.00;52264.78;2079119;28;29976;-72
2023/08/08 00:38:54;;;;;;;5.72;2.13;;;;;;;-146.25;100.00;52274.94;2071836;28;25870;-72
2023/08/08 00:39:56;;;;;;;3.60;2.10;;;;;;;-146.25;100.00;52317.50;2071639;28;29739;-71
2023/08/08 00:40:58;;;;;;;3.78;1.67;;;;;;;-146.25;100.00;52291.16;2070922;28;22995;-70
2023/08/08 00:42:00;;;;;;;4.32;2.20;;;;;;;-146.25;100.00;52254.66;2062673;28;26656;-72
2023/08/08 00:43:02;;;;;;;7.40;2.63;;;;;;;-146.25;100.00;52268.84;2070917;28;29369;-70
2023/08/08 00:44:04;;;;;;;4.13;2.35;;;;;;;-146.25;100.00;52293.19;2071320;28;20417;-69
2023/08/08 00:45:07;;;;;;;4.20;2.47;;;;;;;-146.25;100.00;52262.75;2070762;28;31043;-69
2023/08/08 00:46:10;;;;;;;6.72;2.47;;;;;;;-146.25;100.00;52270.88;2068844;28;32272;-68
2023/08/08 00:47:12;;;;;;;8.35;2.75;;;;;;;-146.25;100.00;52305.34;2070565;28;30100;-69
2023/08/08 00:48:17;;;;;;;7.20;2.60;;;;;;;-146.25;100.00;52276.97;2063287;28;20462;-69
2023/08/08 00:49:19;;;;;;;6.28;2.35;;;;;;;-146.25;100.00;52274.94;2070869;28;35701;-70
2023/08/08 00:50:21;;;;;;;3.28;2.00;;;;;;;-146.25;100.00;52268.84;2062611;28;32023;-69
2023/08/08 00:51:24;;;;;;;8.05;2.13;;;;;;;-146.25;100.00;52274.94;2062522;28;26437;-71
2023/08/08 00:52:26;;;;;;;4.38;2.35;;;;;;;-146.25;100.00;52254.66;2062636;28;28313;-70
2023/08/08 00:53:31;;;;;;;4.07;2.15;;;;;;;-146.25;100.00;52272.91;2063592;28;20047;-70
2023/08/08 00:54:33;;;;;;;9.60;2.15;;;;;;;-146.25;100.00;52270.88;2063333;28;20917;-72
2023/08/08 00:55:38;;;;;;;6.88;2.13;;;;;;;-146.25;100.00;52238.44;2063606;28;20152;-75
2023/08/08 00:56:40;;;;;;;6.80;2.60;;;;;;;-146.25;100.00;52244.50;2063096;28;20265;-75
2023/08/08 00:57:43;;;;;;;4.95;2.28;;;;;;;-146.25;100.00;52264.78;2063147;28;29382;-75
2023/08/08 00:58:45;;;;;;;4.45;2.25;;;;;;;-146.25;100.00;52274.94;2070755;28;29195;-74
2023/08/08 00:59:47;;;;;;;4.90;2.15;;;;;;;-146.25;100.00;52270.88;2071436;28;20042;-74
2023/08/08 01:00:49;;;;;;;5.28;2.25;;;;;;;-146.25;100.00;52266.81;2071582;28;20168;-74
2023/08/08 01:01:51;;;;;;;3.75;2.72;;;;;;;-146.25;100.00;52321.56;2062818;28;21788;-74
2023/08/08 01:02:53;;;;;;;7.25;2.50;;;;;;;-146.25;100.00;52258.72;2054852;28;29356;-74
2023/08/08 01:03:58;;;;;;;7.03;2.40;;;;;;;-146.25;100.00;52295.19;2070695;28;20121;-75
2023/08/08 01:05:00;;;;;;;5.97;2.33;;;;;;;-146.25;100.00;52295.19;2063402;28;20129;-75
2023/08/08 01:06:13;;;;;;;5.90;1.95;;;;;;;-146.25;100.00;52258.72;2063384;28;28636;-75
2023/08/08 01:07:38;;;;;;;4.95;2.63;;;;;;;-146.25;100.00;52272.91;2064708;28;24556;-74
2023/08/08 01:08:51;;;;;;;4.68;2.10;;;;;;;-146.25;100.00;52218.16;2071907;28;20122;-76
2023/08/08 01:10:31;;;;;;;2.90;2.25;;;;;;;-146.25;100.00;52250.59;2070657;28;28975;-75
2023/08/08 01:11:36;;;;;;;6.68;2.40;;;;;;;-146.25;100.00;52311.44;2072171;28;20041;-74
2023/08/08 01:12:45;;;;;;;3.65;2.35;;;;;;;-146.25;100.00;52281.00;2054341;28;28529;-73
2023/08/08 01:13:48;;;;;;;3.55;2.17;;;;;;;-146.25;100.00;52266.81;2050843;28;20115;-75
2023/08/08 01:14:50;;;;;;;7.68;2.35;;;;;;;-146.25;100.00;52232.34;2070919;28;29164;-76
2023/08/08 01:15:55;;;;;;;5.63;2.25;;;;;;;-146.25;100.00;52309.41;2062724;28;21609;-74
2023/08/08 01:17:01;;;;;;;7.43;2.63;;;;;;;-146.25;100.00;52283.03;2063302;28;30982;-74
2023/08/08 01:18:09;;;;;;;5.68;2.78;;;;;;;-146.25;100.00;52256.69;2071330;28;20043;-73
2023/08/08 01:19:25;;;;;;;6.30;2.15;;;;;;;-146.25;100.00;52262.75;2070155;28;35262;-72
2023/08/08 01:20:27;;;;;;;6.53;2.15;;;;;;;-146.25;100.00;52272.91;2073504;28;29394;-76
2023/08/08 01:21:35;;;;;;;5.78;2.42;;;;;;;-146.25;100.00;52260.72;2077635;28;28442;-75
2023/08/08 01:22:58;;;;;;;5.05;2.63;;;;;;;-146.25;100.00;52262.75;2071300;28;20049;-75
2023/08/08 01:24:16;;;;;;;3.75;2.20;;;;;;;-146.25;100.00;52246.53;2075173;28;20034;-75
2023/08/08 01:25:19;;;;;;;4.03;2.42;;;;;;;-146.25;100.00;52319.53;2070784;28;29840;-76
2023/08/08 01:26:22;;;;;;;6.07;2.55;;;;;;;-146.25;100.00;52246.53;2063011;28;31487;-75
2023/08/08 01:27:24;;;;;;;7.18;2.60;;;;;;;-146.25;100.00;52270.88;2062147;28;36989;-75
2023/08/08 01:28:26;;;;;;;6.05;2.40;;;;;;;-146.25;100.00;52242.50;2059024;28;27657;-76
2023/08/08 01:29:28;;;;;;;8.35;2.58;;;;;;;-146.25;100.00;52224.25;2062966;28;23574;-74
2023/08/08 01:30:29;;;;;;;5.03;2.90;;;;;;;-146.25;100.00;52272.91;2056327;28;24630;-75
2023/08/08 01:31:34;;;;;;;6.15;2.30;;;;;;;-146.25;100.00;52248.56;2064625;28;20039;-75
2023/08/08 01:32:36;;;;;;;5.28;2.05;;;;;;;-146.25;100.00;52301.28;2064251;28;38875;-74
2023/08/08 01:33:38;;;;;;;6.22;2.33;;;;;;;-146.25;100.00;52238.44;2072536;28;20899;-74
2023/08/08 01:34:40;;;;;;;6.28;2.47;;;;;;;-146.25;100.00;52264.78;2072258;28;24669;-74
2023/08/08 01:35:50;;;;;;;4.88;2.50;;;;;;;-146.25;100.00;52266.81;2063640;28;33514;-74
2023/08/08 01:37:20;;;;;;;3.42;2.10;;;;;;;-146.25;100.00;52232.34;2058737;28;30169;-74
2023/08/08 01:38:36;;;;;;;5.20;2.35;;;;;;;-146.25;100.00;52274.94;2063208;28;20942;-74
2023/08/08 01:39:40;;;;;;;5.93;3.08;;;;;;;-146.25;100.00;52246.53;2065943;28;28606;-75
2023/08/08 01:40:44;;;;;;;9.95;2.70;;;;;;;-146.25;100.00;52236.41;2064778;28;25260;-75
2023/08/08 01:41:48;;;;;;;5.28;2.50;;;;;;;-146.25;100.00;52274.94;2072415;28;25001;-75
2023/08/08 01:42:53;;;;;;;4.60;2.35;;;;;;;-146.25;100.00;52262.75;2063291;28;28531;-75
2023/08/08 01:43:55;;;;;;;3.50;2.33;;;;;;;-146.25;100.00;52299.25;2048592;28;37682;-75
2023/08/08 01:44:59;;;;;;;4.32;2.17;;;;;;;-146.25;100.00;52236.41;2048949;28;20127;-75
2023/08/08 01:46:04;;;;;;;5.65;2.30;;;;;;;-146.25;100.00;52262.75;2056414;28;20130;-75
2023/08/08 01:47:06;;;;;;;4.40;2.63;;;;;;;-146.25;100.00;52268.84;2062431;28;20058;-74
2023/08/08 01:48:12;;;;;;;5.60;2.60;;;;;;;-146.25;100.00;52295.19;2063774;28;30274;-75
2023/08/08 01:49:14;;;;;;;7.55;2.70;;;;;;;-146.25;100.00;52272.91;2072069;28;29043;-74
2023/08/08 01:50:15;;;;;;;4.57;2.00;;;;;;;-146.25;100.00;52283.03;2072300;28;26416;-75
2023/08/08 01:51:17;;;;;;;2.72;2.35;;;;;;;-146.25;100.00;52285.06;2071940;28;25218;-74
2023/08/08 01:52:19;;;;;;;5.97;2.60;;;;;;;-146.25;100.00;52297.22;2071798;28;27208;-75
2023/08/08 01:53:21;;;;;;;3.50;2.30;;;;;;;-146.25;100.00;52260.72;2063727;28;29752;-74
2023/08/08 01:54:22;;;;;;;5.10;2.65;;;;;;;-146.25;100.00;52268.84;2072224;28;27036;-75
2023/08/08 01:55:25;;;;;;;8.68;2.95;;;;;;;-146.25;100.00;52295.19;2080143;28;20065;-75
2023/08/08 01:56:26;;;;;;;6.53;2.90;;;;;;;-146.25;100.00;52283.03;2071678;28;26791;-74
2023/08/08 01:57:30;;;;;;;4.70;2.50;;;;;;;-146.25;100.00;52289.13;2063496;28;31276;-74
2023/08/08 01:58:33;;;;;;;5.28;2.60;;;;;;;-146.25;100.00;52285.06;2065220;28;20082;-74
2023/08/08 01:59:37;;;;;;;3.95;2.33;;;;;;;-146.25;100.00;52254.66;2064542;28;21039;-75
2023/08/08 02:00:40;;;;;;;5.22;2.60;;;;;;;-146.25;100.00;52270.88;2051685;28;20106;-75
2023/08/08 02:01:42;;;;;;;4.70;2.40;;;;;;;-146.25;100.00;52236.41;2064537;28;20085;-75
2023/08/08 02:02:44;;;;;;;5.10;2.40;;;;;;;-146.25;100.00;52307.38;2079495;28;27530;-75
2023/08/08 02:03:46;;;;;;;8.55;2.42;;;;;;;-146.25;100.00;52272.91;2080122;28;20832;-74
2023/08/08 02:04:48;;;;;;;3.25;2.50;;;;;;;-146.25;100.00;52299.25;2080117;28;24166;-74
2023/08/08 02:05:50;;;;;;;6.22;2.60;;;;;;;-146.25;100.00;52274.94;2080582;28;33015;-74
2023/08/08 02:06:52;;;;;;;6.18;2.80;;;;;;;-146.25;100.00;52258.72;2080414;28;20105;-75
2023/08/08 02:07:53;;;;;;;6.47;3.00;;;;;;;-146.25;100.00;52264.78;2071860;28;25929;-74
2023/08/08 02:08:58;;;;;;;4.13;2.78;;;;;;;-146.25;100.00;52287.09;2071887;28;21459;-74
2023/08/08 02:10:00;;;;;;;5.38;2.78;;;;;;;-146.25;100.00;52272.91;2076924;28;20173;-74
2023/08/08 02:11:01;;;;;;;5.53;2.95;;;;;;;-146.25;100.00;52254.66;2071813;28;44072;-74
2023/08/08 02:12:04;;;;;;;3.70;2.63;;;;;;;-146.25;100.00;52303.31;2072684;28;21869;-70
2023/08/08 02:13:07;;;;;;;5.85;2.63;;;;;;;-146.25;100.00;52276.97;2071920;28;20175;-70
2023/08/08 02:14:08;;;;;;;4.25;2.70;;;;;;;-146.25;100.00;52220.19;2072066;28;27306;-72
2023/08/08 02:15:10;;;;;;;5.80;2.70;;;;;;;-146.25;100.00;52270.88;2064126;28;20174;-72
2023/08/08 02:16:12;;;;;;;8.68;3.10;;;;;;;-146.25;100.00;52303.31;2071960;28;27117;-72
2023/08/08 02:17:14;;;;;;;7.63;2.70;;;;;;;-146.25;100.00;52274.94;2079703;28;28289;-73
2023/08/08 02:18:16;;;;;;;4.85;3.08;;;;;;;-146.25;100.00;52278.97;2071495;28;25705;-72
2023/08/08 02:19:20;;;;;;;4.45;2.95;;;;;;;-146.25;100.00;52266.81;2063681;28;20099;-70
2023/08/08 02:20:22;;;;;;;5.45;2.83;;;;;;;-146.25;100.00;52246.53;2071695;28;26189;-71
2023/08/08 02:21:25;;;;;;;7.50;3.33;;;;;;;-146.25;100.00;52256.69;2072129;28;20093;-71
2023/08/08 02:22:27;;;;;;;8.02;3.33;;;;;;;-146.25;100.00;52317.50;2071575;28;20157;-70
2023/08/08 02:23:30;;;;;;;6.25;3.25;;;;;;;-146.25;100.00;52270.88;2071709;28;20043;-70
2023/08/08 02:24:32;;;;;;;6.15;3.30;;;;;;;-146.25;100.00;52303.31;2072010;28;22243;-68
2023/08/08 02:25:33;;;;;;;7.63;3.35;;;;;;;-146.25;100.00;52268.84;2071529;28;22866;-69
2023/08/08 02:26:35;;;;;;;4.15;3.15;;;;;;;-146.25;100.00;52276.97;2063717;28;20896;-70
2023/08/08 02:27:42;;;;;;;8.27;3.35;;;;;;;-146.25;100.00;52254.66;2064722;28;20035;-71
2023/08/08 02:28:44;;;;;;;5.22;3.42;;;;;;;-146.25;100.00;52305.34;2072485;28;20077;-69
2023/08/08 02:29:46;;;;;;;9.48;3.70;;;;;;;-146.25;100.00;52234.38;2071628;28;29061;-70
2023/08/08 02:32:06;;;;;;;5.75;3.40;;;;;;;-146.25;100.00;52283.03;2089633;28;20561;-72
2023/08/08 02:33:08;;;;;;;6.60;3.65;;;;;;;-146.25;100.00;52270.88;2089107;28;20045;-72
2023/08/08 02:34:10;;;;;;;5.97;3.55;;;;;;;-146.25;100.00;52250.59;2088471;28;20045;-69
2023/08/08 02:35:12;;;;;;;6.78;3.70;;;;;;;-146.25;100.00;52270.88;2088178;28;27721;-69
2023/08/08 02:36:13;;;;;;;7.07;4.30;;;;;;;-146.25;100.00;52234.38;2088053;28;26411;-70
2023/08/08 02:37:18;;;;;;;9.95;4.32;;;;;;;-146.25;100.00;52276.97;2088133;28;20033;-70
2023/08/08 02:38:19;;;;;;;6.30;4.10;;;;;;;-146.25;100.00;52246.53;2088894;28;24122;-70
2023/08/08 02:39:21;;;;;;;7.78;3.60;;;;;;;-146.25;100.00;52295.19;2088536;28;24488;-69
2023/08/08 02:40:26;;;;;;;5.65;4.18;;;;;;;-146.25;100.00;52274.94;2087987;28;33288;-72
2023/08/08 02:41:28;;;;;;;6.72;4.10;;;;;;;-146.25;100.00;52242.50;2087756;28;20053;-72
2023/08/08 02:42:31;;;;;;;5.47;3.53;;;;;;;-146.25;100.00;52244.50;2087995;28;20041;-70
2023/08/08 02:43:32;;;;;;;5.97;4.13;;;;;;;-146.25;100.00;52274.94;2087790;28;32944;-70
2023/08/08 02:44:34;;;;;;;7.38;3.85;;;;;;;-146.25;100.00;52262.75;2088217;28;30895;-70
2023/08/08 02:45:36;;;;;;;7.00;3.92;;;;;;;-146.25;100.00;52260.72;2088142;28;23116;-71
2023/08/08 02:46:38;;;;;;;8.90;4.28;;;;;;;-146.25;100.00;52272.91;2088133;28;20041;-71
2023/08/08 02:47:41;;;;;;;7.35;3.90;;;;;;;-146.25;100.00;52256.69;2087658;28;20049;-71
2023/08/08 02:48:43;;;;;;;7.78;4.28;;;;;;;-146.25;100.00;52287.09;2088628;28;20639;-71
2023/08/08 02:49:46;;;;;;;6.00;3.47;;;;;;;-146.25;100.00;52287.09;2088105;28;21269;-71
2023/08/08 02:50:49;;;;;;;6.95;4.03;;;;;;;-146.25;100.00;52270.88;2088623;28;20073;-71
2023/08/08 02:51:53;;;;;;;9.15;4.38;;;;;;;-146.25;100.00;52299.25;2088019;28;20521;-71
2023/08/08 02:52:56;;;;;;;8.65;4.20;;;;;;;-146.25;100.00;52244.50;2088618;28;20033;-70
2023/08/08 02:54:02;;;;;;;7.05;4.50;;;;;;;-146.25;100.00;52256.69;2088199;28;20088;-71
2023/08/08 02:55:07;;;;;;;4.72;4.10;;;;;;;-146.25;100.00;52283.03;2080724;28;20046;-74
2023/08/08 02:56:13;;;;;;;6.78;3.70;;;;;;;-146.25;100.00;52252.63;2079913;28;20053;-73
2023/08/08 02:57:16;;;;;;;8.02;4.15;;;;;;;-146.25;100.00;52258.72;2088464;28;20045;-75
2023/08/08 02:58:18;;;;;;;9.13;4.18;;;;;;;-146.25;100.00;52250.59;2079935;28;20120;-72
2023/08/08 02:59:20;;;;;;;7.85;4.13;;;;;;;-146.25;100.00;52297.22;2079696;28;20081;-75
2023/08/08 03:00:26;;;;;;;6.07;4.30;;;;;;;-146.25;100.00;52256.69;2088224;28;20045;-74
2023/08/08 03:01:29;;;;;;;4.75;3.92;;;;;;;-146.25;100.00;52240.47;2088339;28;20815;-74
2023/08/08 03:02:32;;;;;;;7.07;3.80;;;;;;;-146.25;100.00;52274.94;2083364;28;20136;-74
2023/08/08 03:03:34;;;;;;;5.57;3.88;;;;;;;-146.25;100.00;52299.25;2088365;28;20140;-74
2023/08/08 03:04:36;;;;;;;6.75;4.03;;;;;;;-146.25;100.00;52250.59;2087981;28;20044;-73
2023/08/08 03:05:40;;;;;;;7.43;4.85;;;;;;;-146.25;100.00;52250.59;2080254;28;20042;-74
2023/08/08 03:06:44;;;;;;;6.10;4.18;;;;;;;-146.25;100.00;52285.06;2088569;28;23979;-73
2023/08/08 03:07:46;;;;;;;8.90;4.75;;;;;;;-146.25;100.00;52262.75;2088110;28;20048;-73
2023/08/08 03:08:48;;;;;;;8.23;4.10;;;;;;;-146.25;100.00;52283.03;2079948;28;20046;-74
2023/08/08 03:09:50;;;;;;;8.30;4.45;;;;;;;-146.25;100.00;52266.81;2080349;28;20081;-75
2023/08/08 03:10:52;;;;;;;6.30;4.13;;;;;;;-146.25;100.00;52242.50;2088046;28;20096;-75
2023/08/08 03:11:54;;;;;;;6.32;3.95;;;;;;;-146.25;100.00;52242.50;2088243;28;20220;-74
2023/08/08 03:12:56;;;;;;;8.35;3.80;;;;;;;-146.25;100.00;52311.44;2076260;28;20050;-74
2023/08/08 03:13:58;;;;;;;12.15;4.22;;;;;;;-146.25;100.00;52262.75;2088159;28;25876;-73
2023/08/08 03:15:00;;;;;;;7.82;4.28;;;;;;;-146.25;100.00;52270.88;2087330;28;20520;-74
2023/08/08 03:16:03;;;;;;;7.50;3.60;;;;;;;-146.25;100.00;52274.94;2079790;28;20142;-74
2023/08/08 03:17:05;;;;;;;8.07;4.30;;;;;;;-146.25;100.00;52270.88;2080151;28;20158;-73
2023/08/08 03:18:07;;;;;;;7.47;3.70;;;;;;;-146.25;100.00;52272.91;2088510;28;20933;-74
2023/08/08 03:19:10;;;;;;;6.00;3.95;;;;;;;-146.25;100.00;52258.72;2087579;28;20176;-74
2023/08/08 03:20:13;;;;;;;4.65;3.63;;;;;;;-146.25;100.00;52289.13;2080227;28;20906;-73
2023/08/08 03:21:15;;;;;;;7.00;3.78;;;;;;;-146.25;100.00;52262.75;2079727;28;20046;-73
2023/08/08 03:22:16;;;;;;;6.05;3.75;;;;;;;-146.25;100.00;52256.69;2088270;28;20038;-74
2023/08/08 03:23:18;;;;;;;13.10;4.60;;;;;;;-146.25;100.00;52270.88;2096472;28;20033;-74
2023/08/08 03:24:21;;;;;;;5.85;3.97;;;;;;;-146.25;100.00;52272.91;2096399;28;20049;-72
2023/08/08 03:25:23;;;;;;;7.47;3.72;;;;;;;-146.25;100.00;52293.19;2096123;28;28984;-73
2023/08/08 03:26:26;;;;;;;9.07;3.90;;;;;;;-146.25;100.00;52276.97;2088015;28;20045;-73
2023/08/08 03:27:28;;;;;;;5.38;3.22;;;;;;;-146.25;100.00;52291.16;2080196;28;20874;-73
2023/08/08 03:28:30;;;;;;;7.07;3.88;;;;;;;-146.25;100.00;52278.97;2088082;28;20221;-74
2023/08/08 03:29:35;;;;;;;8.10;3.95;;;;;;;-146.25;100.00;52299.25;2087984;28;20048;-73
2023/08/08 03:30:38;;;;;;;5.85;3.63;;;;;;;-146.25;100.00;52242.50;2088625;28;20192;-74
2023/08/08 03:31:42;;;;;;;9.30;3.50;;;;;;;-146.25;100.00;52266.81;2095894;28;21080;-73
2023/08/08 03:32:46;;;;;;;6.40;3.58;;;;;;;-146.25;100.00;52262.75;2096281;28;24366;-74
2023/08/08 03:33:48;;;;;;;7.55;3.80;;;;;;;-146.25;100.00;52274.94;2096322;28;20886;-74
2023/08/08 03:34:50;;;;;;;8.30;3.78;;;;;;;-146.25;100.00;52283.03;2087823;28;20165;-75
2023/08/08 03:35:52;;;;;;;4.72;3.55;;;;;;;-146.25;100.00;52238.44;2087800;28;21045;-75
2023/08/08 03:36:57;;;;;;;4.30;3.60;;;;;;;-146.25;100.00;52274.94;2087895;28;20891;-75
2023/08/08 03:37:59;;;;;;;6.45;3.90;;;;;;;-146.25;100.00;52291.16;2088259;28;20834;-75
2023/08/08 03:39:03;;;;;;;8.60;3.30;;;;;;;-146.25;100.00;52268.84;2095758;28;20052;-75
2023/08/08 03:40:07;;;;;;;7.68;3.38;;;;;;;-146.25;100.00;52258.72;2087946;28;20048;-75
2023/08/08 03:41:09;;;;;;;9.20;3.90;;;;;;;-146.25;100.00;52283.03;2088171;28;20126;-75
2023/08/08 03:42:11;;;;;;;8.10;4.07;;;;;;;-146.25;100.00;52272.91;2095612;28;26553;-75
2023/08/08 03:43:13;;;;;;;6.13;3.60;;;;;;;-146.25;100.00;52270.88;2088114;28;22226;-75
2023/08/08 03:44:15;;;;;;;6.50;3.38;;;;;;;-146.25;100.00;52246.53;2096050;28;30299;-75
2023/08/08 03:45:19;;;;;;;5.63;4.20;;;;;;;-146.25;100.00;52254.66;2095824;28;21945;-75
2023/08/08 03:46:20;;;;;;;7.85;4.10;;;;;;;-146.25;100.00;52274.94;2088533;28;20926;-75
2023/08/08 03:47:23;;;;;;;9.63;4.07;;;;;;;-146.25;100.00;52240.47;2088067;28;20057;-75
2023/08/08 03:48:24;;;;;;;4.72;3.63;;;;;;;-146.25;100.00;52260.72;2075153;28;35194;-74
2023/08/08 03:49:26;;;;;;;5.70;3.97;;;;;;;-146.25;100.00;52293.19;2071700;28;20073;-75
2023/08/08 03:50:28;;;;;;;4.95;3.78;;;;;;;-146.25;100.00;52252.63;2072071;28;30820;-74
2023/08/08 03:51:30;;;;;;;8.40;3.83;;;;;;;-146.25;100.00;52289.13;2079891;28;21087;-75
2023/08/08 03:52:35;;;;;;;6.80;3.58;;;;;;;-146.25;100.00;52291.16;2079104;28;20077;-74
2023/08/08 03:53:37;;;;;;;5.47;3.78;;;;;;;-146.25;100.00;52299.25;2096142;28;21029;-74
2023/08/08 03:54:40;;;;;;;6.82;3.47;;;;;;;-146.25;100.00;52244.50;2087737;28;20045;-74
2023/08/08 03:55:42;;;;;;;5.20;3.40;;;;;;;-146.25;100.00;52270.88;2088165;28;20910;-74
2023/08/08 03:56:43;;;;;;;7.45;3.92;;;;;;;-146.25;100.00;52244.50;2087893;28;20052;-74
2023/08/08 03:57:45;;;;;;;6.55;3.80;;;;;;;-146.25;100.00;52250.59;2096423;28;20048;-74
2023/08/08 03:58:47;;;;;;;6.60;3.50;;;;;;;-146.25;100.00;52281.00;2087640;28;20830;-73
2023/08/08 03:59:49;;;;;;;5.30;3.17;;;;;;;-146.25;100.00;52303.31;2087736;28;24973;-74
2023/08/08 04:00:51;;;;;;;7.38;3.33;;;;;;;-146.25;100.00;52281.00;2095336;28;25643;-74
2023/08/08 04:01:53;;;;;;;4.93;3.55;;;;;;;-146.25;100.00;52289.13;2087913;28;20072;-74
2023/08/08 04:02:55;;;;;;;6.18;3.58;;;;;;;-146.25;100.00;52254.66;2079419;28;20128;-74
2023/08/08 04:03:57;;;;;;;7.68;3.58;;;;;;;-146.25;100.00;52268.84;2087667;28;28051;-74
2023/08/08 04:05:01;;;;;;;8.48;3.38;;;;;;;-146.25;100.00;52287.09;2087303;28;20046;-73
2023/08/08 04:06:03;;;;;;;6.28;3.70;;;;;;;-146.25;100.00;52252.63;2087803;28;29705;-72
2023/08/08 04:07:06;;;;;;;8.18;3.85;;;;;;;-146.25;100.00;52266.81;2087943;28;20830;-74
2023/08/08 04:08:08;;;;;;;6.45;3.40;;;;;;;-146.25;100.00;52238.44;2071826;28;20054;-72
2023/08/08 04:09:11;;;;;;;5.55;3.47;;;;;;;-146.25;100.00;52258.72;2087045;28;36074;-71
2023/08/08 04:10:13;;;;;;;6.63;3.38;;;;;;;-146.25;100.00;52299.25;2088075;28;20921;-71
2023/08/08 04:11:15;;;;;;;8.60;3.63;;;;;;;-146.25;100.00;52230.31;2078856;28;34019;-70
2023/08/08 04:12:16;;;;;;;8.13;3.20;;;;;;;-146.25;100.00;52270.88;2087464;28;30287;-70
2023/08/08 04:13:18;;;;;;;6.95;3.63;;;;;;;-146.25;100.00;52285.06;2087324;28;22989;-70
2023/08/08 04:14:22;;;;;;;4.65;3.38;;;;;;;-146.25;100.00;52274.94;2080008;28;20038;-70
2023/08/08 04:15:24;;;;;;;9.05;3.47;;;;;;;-146.25;100.00;52301.28;2079070;28;31186;-71
2023/08/08 04:16:26;;;;;;;6.10;3.60;;;;;;;-146.25;100.00;52256.69;2087968;28;20148;-70
2023/08/08 04:17:30;;;;;;;7.30;3.50;;;;;;;-146.25;100.00;52266.81;2095674;28;20817;-70
2023/08/08 04:18:32;;;;;;;7.15;3.17;;;;;;;-146.25;100.00;52307.38;2088486;28;26080;-71
2023/08/08 04:19:34;;;;;;;7.10;3.15;;;;;;;-146.25;100.00;52272.91;2087656;28;34811;-71
2023/08/08 04:20:38;;;;;;;5.13;3.35;;;;;;;-146.25;100.00;52274.94;2087794;28;36381;-70
2023/08/08 04:21:41;;;;;;;4.65;3.33;;;;;;;-146.25;100.00;52293.19;2095984;28;20148;-71
2023/08/08 04:22:45;;;;;;;8.52;2.95;;;;;;;-146.25;100.00;52268.84;2091275;28;20107;-71
2023/08/08 04:23:47;;;;;;;8.15;3.50;;;;;;;-146.25;100.00;52295.19;2087881;28;34157;-71
2023/08/08 04:24:48;;;;;;;7.95;3.90;;;;;;;-146.25;100.00;52301.28;2087116;28;36429;-71
2023/08/08 04:25:50;;;;;;;7.45;3.42;;;;;;;-146.25;100.00;52262.75;2087933;28;20882;-71
2023/08/08 04:26:55;;;;;;;9.90;3.47;;;;;;;-146.25;100.00;52285.06;2087869;28;20045;-71
2023/08/08 04:27:57;;;;;;;6.82;3.17;;;;;;;-146.25;100.00;52258.72;2086563;28;35954;-68
2023/08/08 04:28:59;;;;;;;6.55;2.90;;;;;;;-146.25;100.00;52244.50;2087712;28;36584;-71
2023/08/08 04:30:00;;;;;;;5.82;3.10;;;;;;;-146.25;100.00;52272.91;2087839;28;34518;-71
2023/08/08 04:31:02;;;;;;;7.63;3.00;;;;;;;-146.25;100.00;52287.09;2087238;28;38909;-70
2023/08/08 04:32:05;;;;;;;5.50;2.90;;;;;;;-146.25;100.00;52295.19;2087184;28;35949;-70
2023/08/08 04:33:06;;;;;;;9.07;3.17;;;;;;;-146.25;100.00;52291.16;2087589;28;35378;-70
2023/08/08 04:34:11;;;;;;;4.57;2.90;;;;;;;-146.25;100.00;52274.94;2087384;28;36807;-70
2023/08/08 04:35:13;;;;;;;3.80;2.70;;;;;;;-146.25;100.00;52272.91;2088117;28;37048;-70
2023/08/08 04:36:20;;;;;;;6.15;3.10;;;;;;;-146.25;100.00;52283.03;2087259;28;33499;-71
2023/08/08 04:37:22;;;;;;;6.72;3.05;;;;;;;-146.25;100.00;52272.91;2087821;28;31131;-72
2023/08/08 04:38:23;;;;;;;4.47;2.45;;;;;;;-146.25;100.00;52242.50;2088272;28;20149;-70
2023/08/08 04:39:30;;;;;;;9.27;3.13;;;;;;;-146.25;100.00;52246.53;2088390;28;20042;-70
2023/08/08 04:40:32;;;;;;;7.03;3.05;;;;;;;-146.25;100.00;52291.16;2086383;28;20182;-71
2023/08/08 04:41:33;;;;;;;5.78;2.85;;;;;;;-146.25;100.00;52258.72;2086885;28;35643;-70
2023/08/08 04:42:35;;;;;;;5.43;2.67;;;;;;;-146.25;100.00;52283.03;2086874;28;33629;-71
2023/08/08 04:43:37;;;;;;;5.82;3.13;;;;;;;-146.25;100.00;52291.16;2088299;28;20791;-71
2023/08/08 04:44:39;;;;;;;6.90;3.22;;;;;;;-146.25;100.00;52295.19;2088008;28;33106;-70
2023/08/08 04:45:41;;;;;;;3.58;2.63;;;;;;;-146.25;100.00;52301.28;2088419;28;20085;-72
2023/08/08 04:46:43;;;;;;;5.25;2.72;;;;;;;-146.25;100.00;52295.19;2087985;28;39217;-70
2023/08/08 04:47:44;;;;;;;7.82;3.10;;;;;;;-146.25;100.00;52283.03;2088215;28;32521;-70
2023/08/08 04:48:46;;;;;;;4.18;2.30;;;;;;;-146.25;100.00;52309.41;2085341;28;35393;-70